createdAt,value
2022-10-13T00:02:18.870Z,19.00
2022-10-13T00:05:25.876Z,18.40
2022-10-13T00:08:32.675Z,18.80
2022-10-13T00:11:39.284Z,18.10
2022-10-13T00:14:45.979Z,18.30
2022-10-13T00:17:52.403Z,19.20
2022-10-13T00:20:59.311Z,22.70
2022-10-13T00:24:06.431Z,21.60
2022-10-13T00:27:13.175Z,20.80
2022-10-13T00:30:19.772Z,20.70
2022-10-13T00:33:26.912Z,20.10
2022-10-13T00:36:34.017Z,21.50
2022-10-13T00:39:41.235Z,20.90
2022-10-13T00:42:47.945Z,19.80
2022-10-13T00:45:55.509Z,19.80
2022-10-13T00:49:07.034Z,19.80
2022-10-13T00:52:15.477Z,18.40
2022-10-13T00:55:27.227Z,19.50
2022-10-13T00:58:34.041Z,21.60
2022-10-13T01:01:41.166Z,20.70
2022-10-13T01:04:49.909Z,21.80
2022-10-13T01:07:58.073Z,20.90
2022-10-13T01:11:21.023Z,20.90
2022-10-13T01:14:36.051Z,21.10
2022-10-13T01:17:51.698Z,20.50
2022-10-13T01:21:13.092Z,19.20
2022-10-13T01:24:36.172Z,18.80
2022-10-13T01:27:59.421Z,21.80
2022-10-13T01:31:12.284Z,23.30
2022-10-13T01:34:23.684Z,20.90
2022-10-13T01:37:34.267Z,21.30
2022-10-13T01:40:45.356Z,21.20
2022-10-13T01:43:58.219Z,19.70
2022-10-13T01:47:06.035Z,21.20
2022-10-13T01:50:14.563Z,20.20
2022-10-13T01:53:22.743Z,20.20
2022-10-13T01:56:32.999Z,18.80
2022-10-13T01:59:39.628Z,20.40
2022-10-13T02:02:55.288Z,23.30
2022-10-13T02:06:11.178Z,25.60
2022-10-13T02:09:28.246Z,23.70
2022-10-13T02:12:40.457Z,21.90
2022-10-13T02:15:51.036Z,22.80
2022-10-13T02:18:59.366Z,23.00
2022-10-13T02:22:07.688Z,23.20
2022-10-13T02:25:14.744Z,21.60
2022-10-13T02:28:21.952Z,18.80
2022-10-13T02:31:28.697Z,19.20
2022-10-13T02:34:35.564Z,19.90
2022-10-13T02:37:42.132Z,20.40
2022-10-13T02:40:48.726Z,22.50
2022-10-13T02:43:55.291Z,23.90
2022-10-13T02:47:04.253Z,23.40
2022-10-13T02:50:11.796Z,23.50
2022-10-13T02:53:18.472Z,22.70
2022-10-13T02:56:25.144Z,23.30
2022-10-13T02:59:31.641Z,21.60
2022-10-13T03:02:38.302Z,22.60
2022-10-13T03:05:45.121Z,21.70
2022-10-13T03:08:51.784Z,22.40
2022-10-13T03:11:58.744Z,22.20
2022-10-13T03:15:06.038Z,22.70
2022-10-13T03:18:13.291Z,23.90
2022-10-13T03:21:20.313Z,26.60
2022-10-13T03:24:27.086Z,25.10
2022-10-13T03:27:33.644Z,25.00
2022-10-13T03:30:40.415Z,24.50
2022-10-13T03:33:47.384Z,23.30
2022-10-13T03:36:53.971Z,25.20
2022-10-13T03:40:00.717Z,22.70
2022-10-13T03:43:07.438Z,23.20
2022-10-13T03:46:16.375Z,22.30
2022-10-13T03:49:25.172Z,24.20
2022-10-13T03:52:34.402Z,25.30
2022-10-13T03:55:41.175Z,26.10
2022-10-13T03:58:47.857Z,26.10
2022-10-13T04:01:54.333Z,25.60
2022-10-13T04:05:00.969Z,26.10
2022-10-13T04:08:07.907Z,25.10
2022-10-13T04:11:16.718Z,21.90
2022-10-13T04:17:29.332Z,22.30
2022-10-13T04:20:40.151Z,27.50
2022-10-13T04:23:46.901Z,24.70
2022-10-13T04:26:53.551Z,28.80
2022-10-13T04:30:00.276Z,28.20
2022-10-13T04:33:07.340Z,28.30
2022-10-13T04:36:15.916Z,28.00
2022-10-13T04:39:22.962Z,29.10
2022-10-13T04:42:29.883Z,27.20
2022-10-13T04:45:36.575Z,27.30
2022-10-13T04:48:43.594Z,26.30
2022-10-13T04:51:50.227Z,24.40
2022-10-13T04:54:56.775Z,23.10
2022-10-13T04:58:03.376Z,24.70
2022-10-13T05:01:17.647Z,20.20
2022-10-13T05:04:27.978Z,25.90
2022-10-13T05:07:34.779Z,27.30
2022-10-13T05:10:41.388Z,29.40
2022-10-13T05:13:48.027Z,29.10
2022-10-13T05:16:55.988Z,27.10
2022-10-13T05:20:02.869Z,26.70
2022-10-13T05:23:09.601Z,27.50
2022-10-13T05:26:18.275Z,28.90
2022-10-13T05:29:24.909Z,27.80
2022-10-13T05:32:31.612Z,25.10
2022-10-13T05:35:38.212Z,23.40
2022-10-13T05:38:45.369Z,20.40
2022-10-13T05:41:52.028Z,21.60
2022-10-13T05:45:01.619Z,24.20
2022-10-13T05:48:09.031Z,27.30
2022-10-13T05:51:18.733Z,27.50
2022-10-13T05:57:34.450Z,26.20
2022-10-13T06:00:43.496Z,23.60
2022-10-13T06:03:54.145Z,22.00
2022-10-13T06:07:01.000Z,21.90
2022-10-13T06:10:09.949Z,20.50
2022-10-13T06:13:16.677Z,20.60
2022-10-13T06:16:23.311Z,18.80
2022-10-13T06:19:30.173Z,18.80
2022-10-13T06:22:38.406Z,21.70
2022-10-13T06:25:50.871Z,20.80
2022-10-13T06:28:59.671Z,22.10
2022-10-13T06:32:11.064Z,20.80
2022-10-13T06:35:18.052Z,19.80
2022-10-13T06:38:24.633Z,19.90
2022-10-13T06:41:32.428Z,19.80
2022-10-13T06:44:38.949Z,18.80
2022-10-13T06:47:45.843Z,19.80
2022-10-13T06:50:52.508Z,16.20
2022-10-13T06:53:59.654Z,18.10
2022-10-13T06:57:09.472Z,17.40
2022-10-13T07:00:16.765Z,17.70
2022-10-13T07:03:25.168Z,17.80
2022-10-13T07:06:31.828Z,18.00
2022-10-13T07:09:38.698Z,15.00
2022-10-13T07:12:45.255Z,14.10
2022-10-13T07:15:51.847Z,16.70
2022-10-13T07:18:58.482Z,13.10
2022-10-13T07:22:05.198Z,16.20
2022-10-13T07:25:12.377Z,16.50
2022-10-13T07:28:19.292Z,14.60
2022-10-13T07:31:27.744Z,13.60
2022-10-13T07:34:34.555Z,14.50
2022-10-13T07:37:41.479Z,14.70
2022-10-13T07:40:48.688Z,14.80
2022-10-13T07:43:58.157Z,15.30
2022-10-13T07:47:04.876Z,14.90
2022-10-13T07:50:12.285Z,14.00
2022-10-13T07:53:18.997Z,14.20
2022-10-13T07:56:25.656Z,13.30
2022-10-13T07:59:34.589Z,13.50
2022-10-13T08:02:41.170Z,14.30
2022-10-13T08:05:47.674Z,13.90
2022-10-13T08:08:55.536Z,13.30
2022-10-13T08:12:03.045Z,13.50
2022-10-13T08:15:11.586Z,11.80
2022-10-13T08:18:18.152Z,13.00
2022-10-13T08:21:57.500Z,12.60
2022-10-13T08:24:51.794Z,12.10
2022-10-13T08:28:00.558Z,11.90
2022-10-13T08:31:08.453Z,12.00
2022-10-13T08:34:15.346Z,11.10
2022-10-13T08:37:22.565Z,12.30
2022-10-13T08:40:29.719Z,11.50
2022-10-13T08:43:45.255Z,12.40
2022-10-13T08:47:08.126Z,10.30
2022-10-13T08:50:18.888Z,10.80
2022-10-13T08:53:31.901Z,11.00
2022-10-13T08:56:39.412Z,10.70
2022-10-13T08:59:46.041Z,10.80
2022-10-13T09:02:53.337Z,11.20
2022-10-13T09:06:12.754Z,11.10
2022-10-13T09:12:26.687Z,9.50
2022-10-13T09:15:45.676Z,10.10
2022-10-13T09:18:53.696Z,10.90
2022-10-13T09:22:15.244Z,8.90
2022-10-13T09:25:23.338Z,9.20
2022-10-13T09:28:32.055Z,9.70
2022-10-13T09:31:39.466Z,9.30
2022-10-13T09:34:49.096Z,8.60
2022-10-13T09:38:06.625Z,8.90
2022-10-13T09:41:24.527Z,9.50
2022-10-13T09:44:33.102Z,9.20
2022-10-13T09:47:40.898Z,10.20
2022-10-13T09:50:53.212Z,8.60
2022-10-13T09:54:00.020Z,9.60
2022-10-13T09:57:12.772Z,9.00
2022-10-13T10:00:23.139Z,8.90
2022-10-13T10:03:34.573Z,8.80
2022-10-13T10:06:42.625Z,9.30
2022-10-13T10:09:52.537Z,9.00
2022-10-13T10:12:59.089Z,8.90
2022-10-13T10:16:13.474Z,8.00
2022-10-13T10:19:24.016Z,9.00
2022-10-13T10:22:41.693Z,8.70
2022-10-13T10:29:20.089Z,8.10
2022-10-13T10:32:44.307Z,8.40
2022-10-13T10:35:57.424Z,8.00
2022-10-13T10:39:13.961Z,7.90
2022-10-13T10:42:48.415Z,8.10
2022-10-13T10:46:00.252Z,8.10
2022-10-13T10:49:19.954Z,9.10
2022-10-13T10:52:36.713Z,7.90
2022-10-13T10:55:53.706Z,8.00
2022-10-13T10:59:13.507Z,8.40
2022-10-13T11:02:38.860Z,7.90
2022-10-13T11:06:22.781Z,7.30
2022-10-13T11:10:03.011Z,7.50
2022-10-13T11:13:23.286Z,7.40
2022-10-13T11:16:33.907Z,6.50
2022-10-13T11:19:42.041Z,7.80
2022-10-13T11:23:26.679Z,7.50
2022-10-13T11:26:45.889Z,8.60
2022-10-13T11:30:00.234Z,7.20
2022-10-13T11:33:52.931Z,5.80
2022-10-13T11:37:01.809Z,6.70
2022-10-13T11:40:21.864Z,7.50
2022-10-13T11:43:45.215Z,7.50
2022-10-13T11:47:03.199Z,6.50
2022-10-13T11:50:22.239Z,6.80
2022-10-13T11:53:33.843Z,6.60
2022-10-13T11:56:49.163Z,5.90
2022-10-13T11:59:57.639Z,6.30
2022-10-13T12:03:23.095Z,6.60
2022-10-13T12:06:35.755Z,6.50
2022-10-13T12:09:52.845Z,7.10
2022-10-13T12:13:02.485Z,7.00
2022-10-13T12:16:09.949Z,6.20
2022-10-13T12:19:23.936Z,6.80
2022-10-13T12:22:31.178Z,6.50
2022-10-13T12:25:38.723Z,7.00
2022-10-13T12:28:55.954Z,7.30
2022-10-13T12:32:02.716Z,7.10
2022-10-13T12:35:21.295Z,7.00
2022-10-13T12:38:28.168Z,7.10
2022-10-13T12:41:36.990Z,6.80
2022-10-13T12:47:53.873Z,6.30
2022-10-13T12:51:16.790Z,7.30
2022-10-13T12:54:26.792Z,7.70
2022-10-13T12:57:37.956Z,7.30
2022-10-13T13:00:44.755Z,6.70
2022-10-13T13:03:58.424Z,6.90
2022-10-13T13:07:07.841Z,6.20
2022-10-13T13:10:22.503Z,6.30
2022-10-13T13:13:30.262Z,5.80
2022-10-13T13:16:36.878Z,5.80
2022-10-13T13:19:45.757Z,5.60
2022-10-13T13:22:52.341Z,6.30
2022-10-13T13:26:08.386Z,7.10
2022-10-13T13:29:15.105Z,6.80
2022-10-13T13:32:23.016Z,6.80
2022-10-13T13:35:29.913Z,7.20
2022-10-13T13:38:37.513Z,6.60
2022-10-13T13:41:45.112Z,6.90
2022-10-13T13:44:51.796Z,7.10
2022-10-13T13:48:00.813Z,7.60
2022-10-13T13:51:09.134Z,7.30
2022-10-13T13:54:15.861Z,7.10
2022-10-13T13:57:22.943Z,8.00
2022-10-13T14:00:29.881Z,7.90
2022-10-13T14:03:36.619Z,7.50
2022-10-13T14:06:45.243Z,7.30
2022-10-13T14:09:55.493Z,6.70
2022-10-13T14:13:06.095Z,7.40
2022-10-13T14:16:17.191Z,7.00
2022-10-13T14:19:23.938Z,7.40
2022-10-13T14:22:30.657Z,7.20
2022-10-13T14:25:38.949Z,7.50
2022-10-13T14:28:45.915Z,6.30
2022-10-13T14:31:52.588Z,7.60
2022-10-13T14:34:59.264Z,7.40
2022-10-13T14:38:05.835Z,7.10
2022-10-13T14:41:15.216Z,7.40
2022-10-13T14:44:22.581Z,7.00
2022-10-13T14:47:29.053Z,7.00
2022-10-13T14:50:40.047Z,7.50
2022-10-13T14:53:47.548Z,7.00
2022-10-13T14:56:54.103Z,9.00
2022-10-13T15:00:02.048Z,7.30
2022-10-13T15:03:09.284Z,7.70
2022-10-13T15:06:21.417Z,8.00
2022-10-13T15:09:38.942Z,6.80
2022-10-13T15:12:55.933Z,7.30
2022-10-13T15:16:04.753Z,8.10
2022-10-13T15:19:11.433Z,7.10
2022-10-13T15:22:18.209Z,6.80
2022-10-13T15:25:24.940Z,6.90
2022-10-13T15:28:36.832Z,7.70
2022-10-13T15:31:43.526Z,7.10
2022-10-13T15:34:50.161Z,7.90
2022-10-13T15:37:56.712Z,8.60
2022-10-13T15:41:04.877Z,7.80
2022-10-13T15:44:11.439Z,8.50
2022-10-13T15:47:17.970Z,8.70
2022-10-13T15:50:24.551Z,9.50
2022-10-13T15:53:32.022Z,8.60
2022-10-13T15:56:38.776Z,9.50
2022-10-13T15:59:45.415Z,10.80
2022-10-13T16:02:53.340Z,11.30
2022-10-13T16:06:03.477Z,12.80
2022-10-13T16:09:10.072Z,12.80
2022-10-13T16:12:16.866Z,13.40
2022-10-13T16:15:26.122Z,12.40
2022-10-13T16:21:38.946Z,13.70
2022-10-13T16:24:45.775Z,13.70
2022-10-13T16:27:52.740Z,15.20
2022-10-13T16:31:03.830Z,15.20
2022-10-13T16:34:13.207Z,17.30
2022-10-13T16:37:20.265Z,18.50
2022-10-13T16:40:27.327Z,18.70
2022-10-13T16:43:34.664Z,17.60
2022-10-13T16:46:43.031Z,17.10
2022-10-13T16:49:49.937Z,16.70
2022-10-13T16:52:56.862Z,17.30
2022-10-13T16:56:04.540Z,17.60
2022-10-13T16:59:12.196Z,18.70
2022-10-13T17:02:18.983Z,17.70
2022-10-13T17:05:26.445Z,17.80
2022-10-13T17:08:33.929Z,16.90
2022-10-13T17:11:43.005Z,17.80
2022-10-13T17:14:50.140Z,16.90
2022-10-13T17:17:57.156Z,15.90
2022-10-13T17:21:05.898Z,16.30
2022-10-13T17:24:12.579Z,14.90
2022-10-13T17:27:19.762Z,14.90
2022-10-13T17:30:26.794Z,12.90
2022-10-13T17:33:36.256Z,13.30
2022-10-13T17:39:48.490Z,12.40
2022-10-13T17:42:55.519Z,11.90
2022-10-13T17:46:35.036Z,13.00
2022-10-13T17:49:39.283Z,13.80
2022-10-13T17:52:46.086Z,14.30
2022-10-13T17:55:54.778Z,14.30
2022-10-13T17:59:03.001Z,14.90
2022-10-13T18:02:09.888Z,13.80
2022-10-13T18:05:16.894Z,14.20
2022-10-13T18:08:23.615Z,15.30
2022-10-13T18:11:30.568Z,15.40
2022-10-13T18:14:37.281Z,16.00
2022-10-13T18:17:43.847Z,15.20
2022-10-13T18:20:50.420Z,15.90
2022-10-13T18:23:58.831Z,16.90
2022-10-13T18:27:06.173Z,18.20
2022-10-13T18:30:21.373Z,17.60
2022-10-13T18:33:29.434Z,18.40
2022-10-13T18:36:37.763Z,17.00
2022-10-13T18:39:49.873Z,18.20
2022-10-13T18:42:56.497Z,17.50
2022-10-13T18:46:03.360Z,17.30
2022-10-13T18:49:13.654Z,16.80
2022-10-13T18:52:22.209Z,16.50
2022-10-13T18:55:29.010Z,18.60
2022-10-13T18:58:36.493Z,17.90
2022-10-13T19:01:44.479Z,18.30
2022-10-13T19:04:51.269Z,16.50
2022-10-13T19:07:58.326Z,16.30
2022-10-13T19:11:13.445Z,16.40
2022-10-13T19:14:20.105Z,16.10
2022-10-13T19:17:26.756Z,16.50
2022-10-13T19:20:33.693Z,16.20
2022-10-13T19:23:44.627Z,16.10
2022-10-13T19:27:09.488Z,15.70
2022-10-13T19:30:17.163Z,17.40
2022-10-13T19:33:23.831Z,18.70
2022-10-13T19:36:33.111Z,20.10
2022-10-13T19:39:42.768Z,18.50
2022-10-13T19:42:49.476Z,19.50
2022-10-13T19:45:59.645Z,18.20
2022-10-13T19:49:06.919Z,17.70
2022-10-13T19:52:15.133Z,19.80
2022-10-13T19:55:21.975Z,19.40
2022-10-13T19:58:30.073Z,19.40
2022-10-13T20:01:40.306Z,17.70
2022-10-13T20:05:01.383Z,18.50
2022-10-13T20:08:09.425Z,19.10
2022-10-13T20:11:23.004Z,19.40
2022-10-13T20:14:30.771Z,19.90
2022-10-13T20:17:39.889Z,19.50
2022-10-13T20:20:46.464Z,18.60
2022-10-13T20:23:53.923Z,20.10
2022-10-13T20:27:00.489Z,19.70
2022-10-13T20:30:08.659Z,22.60
2022-10-13T20:33:15.292Z,21.60
2022-10-13T20:36:22.345Z,20.70
2022-10-13T20:39:29.283Z,20.40
2022-10-13T20:42:35.847Z,24.00
2022-10-13T20:45:42.521Z,24.90
2022-10-13T20:52:16.431Z,22.80
2022-10-13T20:55:25.380Z,21.10
2022-10-13T20:58:34.012Z,22.10
2022-10-13T21:01:42.524Z,21.70
2022-10-13T21:04:49.518Z,22.00
2022-10-13T21:07:57.600Z,22.60
2022-10-13T21:11:07.069Z,23.10
2022-10-13T21:17:20.931Z,23.10
2022-10-13T21:20:28.173Z,25.10
2022-10-13T21:23:35.483Z,25.00
2022-10-13T21:26:42.981Z,25.60
2022-10-13T21:29:54.038Z,24.60
2022-10-13T21:33:00.990Z,26.20
2022-10-13T21:36:10.981Z,23.60
2022-10-13T21:39:18.781Z,24.90
2022-10-13T21:42:25.858Z,25.00
2022-10-13T21:45:32.557Z,25.50
2022-10-13T21:48:39.742Z,24.80
2022-10-13T21:51:46.453Z,25.50
2022-10-13T21:54:53.836Z,24.20
2022-10-13T21:58:05.126Z,25.80
2022-10-13T22:01:13.257Z,25.80
2022-10-13T22:04:20.102Z,24.40
2022-10-13T22:07:26.724Z,25.00
2022-10-13T22:10:33.361Z,24.40
2022-10-13T22:13:42.339Z,24.70
2022-10-13T22:16:50.706Z,25.80
2022-10-13T22:19:57.704Z,26.10
2022-10-13T22:23:04.405Z,24.20
2022-10-13T22:26:11.583Z,24.30
2022-10-13T22:29:21.499Z,24.70
2022-10-13T22:32:28.438Z,21.90
2022-10-13T22:35:37.543Z,23.40
2022-10-13T22:38:44.565Z,24.10
2022-10-13T22:41:53.364Z,24.80
2022-10-13T22:45:00.192Z,26.70
2022-10-13T22:48:07.990Z,25.70
2022-10-13T22:51:18.559Z,23.40
2022-10-13T22:54:25.170Z,25.10
2022-10-13T22:57:32.596Z,24.60
2022-10-13T23:00:39.772Z,24.80
2022-10-13T23:03:49.893Z,23.50
2022-10-13T23:06:56.664Z,24.00
2022-10-13T23:10:03.189Z,26.00
2022-10-13T23:13:09.938Z,25.20
2022-10-13T23:16:18.996Z,26.00
2022-10-13T23:19:26.037Z,24.00
2022-10-13T23:22:32.858Z,24.30
2022-10-13T23:25:42.282Z,27.00
2022-10-13T23:28:49.103Z,25.90
2022-10-13T23:31:55.887Z,25.90
2022-10-13T23:35:02.410Z,25.90
2022-10-13T23:38:13.669Z,24.20
2022-10-13T23:41:20.221Z,26.80
2022-10-13T23:44:27.080Z,26.50
2022-10-13T23:47:35.190Z,26.90
2022-10-13T23:50:41.817Z,27.30
2022-10-13T23:53:48.637Z,26.10
2022-10-13T23:56:57.084Z,28.30
